sensor_id;sensor_type;location;lat;lon;timestamp;pressure;altitude;pressure_sealevel;temperature;humidity
30339;BME280;795;49.296;11.348;2023-03-26T00:01:37;95715.50;;;6.17;100.00
30339;BME280;795;49.296;11.348;2023-03-26T00:04:06;95642.81;;;5.73;100.00
30339;BME280;795;49.296;11.348;2023-03-26T00:06:37;95720.03;;;5.98;100.00
30339;BME280;795;49.296;11.348;2023-03-26T00:09:10;95704.75;;;6.00;100.00
30339;BME280;795;49.296;11.348;2023-03-26T00:11:40;95734.66;;;6.20;100.00
30339;BME280;795;49.296;11.348;2023-03-26T00:14:08;95664.00;;;5.82;100.00
30339;BME280;795;49.296;11.348;2023-03-26T00:16:39;95647.94;;;5.66;100.00
30339;BME280;795;49.296;11.348;2023-03-26T00:19:10;95749.53;;;6.31;100.00
30339;BME280;795;49.296;11.348;2023-03-26T00:21:37;95700.59;;;6.06;100.00
30339;BME280;795;49.296;11.348;2023-03-26T00:24:10;95749.59;;;6.39;100.00
30339;BME280;795;49.296;11.348;2023-03-26T00:26:42;95656.31;;;5.79;100.00
30339;BME280;795;49.296;11.348;2023-03-26T00:29:09;95699.31;;;6.10;100.00
30339;BME280;795;49.296;11.348;2023-03-26T00:31:37;95538.00;;;5.14;100.00
30339;BME280;795;49.296;11.348;2023-03-26T00:34:05;95670.88;;;5.85;100.00
30339;BME280;795;49.296;11.348;2023-03-26T00:36:32;95742.06;;;6.34;100.00
30339;BME280;795;49.296;11.348;2023-03-26T00:39:03;95662.72;;;5.86;100.00
30339;BME280;795;49.296;11.348;2023-03-26T00:41:32;95683.56;;;5.91;100.00
30339;BME280;795;49.296;11.348;2023-03-26T00:44:03;95710.91;;;6.01;100.00
30339;BME280;795;49.296;11.348;2023-03-26T00:46:30;95673.91;;;5.90;100.00
30339;BME280;795;49.296;11.348;2023-03-26T00:48:59;95699.09;;;6.03;100.00
30339;BME280;795;49.296;11.348;2023-03-26T00:51:28;95752.28;;;6.47;100.00
30339;BME280;795;49.296;11.348;2023-03-26T00:53:56;95634.81;;;5.73;100.00
30339;BME280;795;49.296;11.348;2023-03-26T00:56:24;95604.25;;;5.51;100.00
30339;BME280;795;49.296;11.348;2023-03-26T00:58:51;95694.34;;;6.15;100.00
30339;BME280;795;49.296;11.348;2023-03-26T01:01:24;95679.09;;;5.99;100.00
30339;BME280;795;49.296;11.348;2023-03-26T01:03:57;95673.22;;;5.88;100.00
30339;BME280;795;49.296;11.348;2023-03-26T01:06:38;95743.84;;;6.26;100.00
30339;BME280;795;49.296;11.348;2023-03-26T01:09:21;95732.44;;;6.08;100.00
30339;BME280;795;49.296;11.348;2023-03-26T01:11:51;95709.59;;;5.79;100.00
30339;BME280;795;49.296;11.348;2023-03-26T01:14:25;95706.56;;;5.74;100.00
30339;BME280;795;49.296;11.348;2023-03-26T01:17:02;95684.41;;;5.48;100.00
30339;BME280;795;49.296;11.348;2023-03-26T01:22:36;95696.16;;;5.63;100.00
30339;BME280;795;49.296;11.348;2023-03-26T01:25:06;95680.22;;;5.46;100.00
30339;BME280;795;49.296;11.348;2023-03-26T01:27:53;95752.47;;;5.86;100.00
30339;BME280;795;49.296;11.348;2023-03-26T01:30:41;95748.78;;;5.87;100.00
30339;BME280;795;49.296;11.348;2023-03-26T01:33:33;95740.78;;;5.87;100.00
30339;BME280;795;49.296;11.348;2023-03-26T01:36:38;95643.94;;;5.19;100.00
30339;BME280;795;49.296;11.348;2023-03-26T01:39:41;95671.59;;;5.26;100.00
30339;BME280;795;49.296;11.348;2023-03-26T01:42:42;95735.47;;;5.69;100.00
30339;BME280;795;49.296;11.348;2023-03-26T01:45:22;95735.94;;;5.65;100.00
30339;BME280;795;49.296;11.348;2023-03-26T01:47:52;95660.59;;;5.21;100.00
30339;BME280;795;49.296;11.348;2023-03-26T01:50:20;95566.97;;;4.56;100.00
30339;BME280;795;49.296;11.348;2023-03-26T01:52:47;95647.41;;;4.94;100.00
30339;BME280;795;49.296;11.348;2023-03-26T01:55:14;95686.88;;;5.24;100.00
30339;BME280;795;49.296;11.348;2023-03-26T01:58:19;95707.63;;;5.38;100.00
30339;BME280;795;49.296;11.348;2023-03-26T02:01:23;95613.66;;;4.94;100.00
30339;BME280;795;49.296;11.348;2023-03-26T02:04:07;95690.75;;;5.47;100.00
30339;BME280;795;49.296;11.348;2023-03-26T02:06:50;95727.72;;;5.76;100.00
30339;BME280;795;49.296;11.348;2023-03-26T02:09:30;95710.66;;;5.86;100.00
30339;BME280;795;49.296;11.348;2023-03-26T02:12:05;95627.44;;;5.67;100.00
30339;BME280;795;49.296;11.348;2023-03-26T02:14:32;95637.91;;;5.60;100.00
30339;BME280;795;49.296;11.348;2023-03-26T02:17:00;95623.91;;;5.58;100.00
30339;BME280;795;49.296;11.348;2023-03-26T02:19:27;95533.72;;;4.96;100.00
30339;BME280;795;49.296;11.348;2023-03-26T02:21:53;95555.03;;;5.04;100.00
30339;BME280;795;49.296;11.348;2023-03-26T02:24:25;95701.84;;;5.86;100.00
30339;BME280;795;49.296;11.348;2023-03-26T02:26:52;95694.28;;;5.81;100.00
30339;BME280;795;49.296;11.348;2023-03-26T02:29:19;95506.03;;;4.81;100.00
30339;BME280;795;49.296;11.348;2023-03-26T02:31:47;95673.97;;;5.80;100.00
30339;BME280;795;49.296;11.348;2023-03-26T02:34:16;95606.47;;;5.38;100.00
30339;BME280;795;49.296;11.348;2023-03-26T02:36:43;95634.75;;;5.65;100.00
30339;BME280;795;49.296;11.348;2023-03-26T02:39:10;95687.94;;;6.00;100.00
30339;BME280;795;49.296;11.348;2023-03-26T02:41:38;95683.13;;;6.03;100.00
30339;BME280;795;49.296;11.348;2023-03-26T02:44:05;95581.25;;;5.42;100.00
30339;BME280;795;49.296;11.348;2023-03-26T02:46:33;95675.78;;;6.06;100.00
30339;BME280;795;49.296;11.348;2023-03-26T02:49:00;95472.03;;;4.92;100.00
30339;BME280;795;49.296;11.348;2023-03-26T02:51:27;95608.56;;;5.78;100.00
30339;BME280;795;49.296;11.348;2023-03-26T02:53:54;95615.59;;;5.87;100.00
30339;BME280;795;49.296;11.348;2023-03-26T02:56:21;95592.38;;;5.71;100.00
30339;BME280;795;49.296;11.348;2023-03-26T02:58:50;95527.00;;;5.09;100.00
30339;BME280;795;49.296;11.348;2023-03-26T03:01:19;95656.94;;;5.99;100.00
30339;BME280;795;49.296;11.348;2023-03-26T03:03:46;95652.59;;;5.90;100.00
30339;BME280;795;49.296;11.348;2023-03-26T03:06:15;95648.50;;;5.78;100.00
30339;BME280;795;49.296;11.348;2023-03-26T03:08:46;95646.16;;;5.75;100.00
30339;BME280;795;49.296;11.348;2023-03-26T03:11:17;95568.16;;;5.23;100.00
30339;BME280;795;49.296;11.348;2023-03-26T03:13:47;95533.56;;;4.97;100.00
30339;BME280;795;49.296;11.348;2023-03-26T03:16:15;95650.31;;;5.77;100.00
30339;BME280;795;49.296;11.348;2023-03-26T03:18:42;95647.47;;;5.79;100.00
30339;BME280;795;49.296;11.348;2023-03-26T03:21:09;95641.00;;;5.81;100.00
30339;BME280;795;49.296;11.348;2023-03-26T03:23:36;95623.50;;;5.71;100.00
30339;BME280;795;49.296;11.348;2023-03-26T03:26:03;95579.63;;;5.49;100.00
30339;BME280;795;49.296;11.348;2023-03-26T03:28:32;95641.00;;;5.81;100.00
30339;BME280;795;49.296;11.348;2023-03-26T03:30:59;95584.53;;;5.36;100.00
30339;BME280;795;49.296;11.348;2023-03-26T03:33:26;95580.47;;;5.24;100.00
30339;BME280;795;49.296;11.348;2023-03-26T03:35:53;95636.56;;;5.56;100.00
30339;BME280;795;49.296;11.348;2023-03-26T03:38:20;95651.13;;;5.44;100.00
30339;BME280;795;49.296;11.348;2023-03-26T03:40:47;95501.31;;;4.49;100.00
30339;BME280;795;49.296;11.348;2023-03-26T03:43:14;95583.13;;;4.98;100.00
30339;BME280;795;49.296;11.348;2023-03-26T03:45:41;95594.72;;;4.97;100.00
30339;BME280;795;49.296;11.348;2023-03-26T03:48:08;95531.22;;;4.51;100.00
30339;BME280;795;49.296;11.348;2023-03-26T03:50:35;95645.19;;;5.07;100.00
30339;BME280;795;49.296;11.348;2023-03-26T03:53:03;95545.97;;;4.45;100.00
30339;BME280;795;49.296;11.348;2023-03-26T03:55:31;95596.06;;;4.76;100.00
30339;BME280;795;49.296;11.348;2023-03-26T03:57:58;95635.31;;;4.99;100.00
30339;BME280;795;49.296;11.348;2023-03-26T04:00:25;95511.44;;;4.10;100.00
30339;BME280;795;49.296;11.348;2023-03-26T04:02:52;95568.44;;;4.33;100.00
30339;BME280;795;49.296;11.348;2023-03-26T04:05:20;95636.84;;;4.84;100.00
30339;BME280;795;49.296;11.348;2023-03-26T04:07:47;95620.34;;;4.63;100.00
30339;BME280;795;49.296;11.348;2023-03-26T04:10:16;95630.47;;;4.77;100.00
30339;BME280;795;49.296;11.348;2023-03-26T04:12:43;95619.22;;;4.65;100.00
30339;BME280;795;49.296;11.348;2023-03-26T04:15:10;95591.06;;;4.37;100.00
30339;BME280;795;49.296;11.348;2023-03-26T04:17:37;95571.47;;;4.21;100.00
30339;BME280;795;49.296;11.348;2023-03-26T04:20:10;95613.28;;;4.36;100.00
30339;BME280;795;49.296;11.348;2023-03-26T04:22:43;95627.28;;;4.38;100.00
30339;BME280;795;49.296;11.348;2023-03-26T04:25:12;95577.66;;;3.94;100.00
30339;BME280;795;49.296;11.348;2023-03-26T04:27:40;95613.41;;;4.17;100.00
30339;BME280;795;49.296;11.348;2023-03-26T04:30:17;95564.91;;;3.97;100.00
30339;BME280;795;49.296;11.348;2023-03-26T04:32:46;95515.00;;;3.56;100.00
30339;BME280;795;49.296;11.348;2023-03-26T04:35:16;95561.44;;;3.70;100.00
30339;BME280;795;49.296;11.348;2023-03-26T04:37:43;95519.44;;;3.38;100.00
30339;BME280;795;49.296;11.348;2023-03-26T04:40:20;95588.03;;;3.87;100.00
30339;BME280;795;49.296;11.348;2023-03-26T04:42:47;95600.13;;;3.99;100.00
30339;BME280;795;49.296;11.348;2023-03-26T04:45:17;95568.13;;;3.74;100.00
30339;BME280;795;49.296;11.348;2023-03-26T04:47:49;95603.81;;;3.89;100.00
30339;BME280;795;49.296;11.348;2023-03-26T04:50:16;95521.78;;;3.41;100.00
30339;BME280;795;49.296;11.348;2023-03-26T04:52:44;95616.19;;;3.98;100.00
30339;BME280;795;49.296;11.348;2023-03-26T04:55:30;95603.91;;;3.97;100.00
30339;BME280;795;49.296;11.348;2023-03-26T04:57:59;95534.06;;;3.42;100.00
30339;BME280;795;49.296;11.348;2023-03-26T05:00:29;95500.03;;;3.38;100.00
30339;BME280;795;49.296;11.348;2023-03-26T05:02:56;95516.44;;;3.51;100.00
30339;BME280;795;49.296;11.348;2023-03-26T05:05:27;95508.47;;;3.23;100.00
30339;BME280;795;49.296;11.348;2023-03-26T05:07:55;95548.84;;;3.72;100.00
30339;BME280;795;49.296;11.348;2023-03-26T05:10:22;95582.66;;;3.97;100.00
30339;BME280;795;49.296;11.348;2023-03-26T05:12:49;95450.56;;;3.19;100.00
30339;BME280;795;49.296;11.348;2023-03-26T05:15:16;95593.63;;;4.12;100.00
30339;BME280;795;49.296;11.348;2023-03-26T05:17:43;95574.16;;;3.93;100.00
30339;BME280;795;49.296;11.348;2023-03-26T05:20:26;95511.25;;;3.76;100.00
30339;BME280;795;49.296;11.348;2023-03-26T05:22:55;95521.13;;;3.84;100.00
30339;BME280;795;49.296;11.348;2023-03-26T05:25:22;95559.72;;;4.23;100.00
30339;BME280;795;49.296;11.348;2023-03-26T05:27:49;95585.66;;;4.29;100.00
30339;BME280;795;49.296;11.348;2023-03-26T05:30:19;95577.47;;;4.40;100.00
30339;BME280;795;49.296;11.348;2023-03-26T05:32:48;95572.16;;;4.40;100.00
30339;BME280;795;49.296;11.348;2023-03-26T05:35:16;95566.53;;;4.43;100.00
30339;BME280;795;49.296;11.348;2023-03-26T05:37:45;95565.84;;;4.41;100.00
30339;BME280;795;49.296;11.348;2023-03-26T05:40:13;95548.91;;;4.25;100.00
30339;BME280;795;49.296;11.348;2023-03-26T05:42:43;95559.56;;;4.42;100.00
30339;BME280;795;49.296;11.348;2023-03-26T05:45:13;95504.22;;;4.20;100.00
30339;BME280;795;49.296;11.348;2023-03-26T05:47:41;95551.97;;;4.47;100.00
30339;BME280;795;49.296;11.348;2023-03-26T05:50:10;95547.16;;;4.51;100.00
30339;BME280;795;49.296;11.348;2023-03-26T05:52:37;95449.91;;;3.97;100.00
30339;BME280;795;49.296;11.348;2023-03-26T05:55:05;95528.44;;;4.52;100.00
30339;BME280;795;49.296;11.348;2023-03-26T05:57:34;95481.59;;;4.34;100.00
30339;BME280;795;49.296;11.348;2023-03-26T06:00:04;95513.53;;;4.59;100.00
30339;BME280;795;49.296;11.348;2023-03-26T06:02:31;95472.91;;;4.49;100.00
30339;BME280;795;49.296;11.348;2023-03-26T06:04:59;95534.09;;;5.01;100.00
30339;BME280;795;49.296;11.348;2023-03-26T06:07:27;95477.59;;;5.07;100.00
30339;BME280;795;49.296;11.348;2023-03-26T06:09:54;95491.19;;;5.29;100.00
30339;BME280;795;49.296;11.348;2023-03-26T06:12:21;95509.28;;;5.60;100.00
30339;BME280;795;49.296;11.348;2023-03-26T06:14:48;95437.53;;;5.42;100.00
30339;BME280;795;49.296;11.348;2023-03-26T06:17:15;95294.22;;;4.97;100.00
30339;BME280;795;49.296;11.348;2023-03-26T06:19:42;95364.69;;;5.67;100.00
30339;BME280;795;49.296;11.348;2023-03-26T06:22:09;95421.03;;;6.05;100.00
30339;BME280;795;49.296;11.348;2023-03-26T06:24:36;95391.75;;;5.88;100.00
30339;BME280;795;49.296;11.348;2023-03-26T06:27:03;95337.75;;;5.54;100.00
30339;BME280;795;49.296;11.348;2023-03-26T06:29:30;95396.88;;;5.90;100.00
30339;BME280;795;49.296;11.348;2023-03-26T06:31:56;95429.03;;;6.21;100.00
30339;BME280;795;49.296;11.348;2023-03-26T06:34:38;95336.41;;;5.42;100.00
30339;BME280;795;49.296;11.348;2023-03-26T06:37:05;95336.53;;;5.41;100.00
30339;BME280;795;49.296;11.348;2023-03-26T06:39:32;95368.53;;;5.65;100.00
30339;BME280;795;49.296;11.348;2023-03-26T06:41:59;95298.78;;;5.29;100.00
30339;BME280;795;49.296;11.348;2023-03-26T06:44:26;95407.72;;;6.05;100.00
30339;BME280;795;49.296;11.348;2023-03-26T06:46:53;95396.38;;;5.94;100.00
30339;BME280;795;49.296;11.348;2023-03-26T06:49:20;95435.56;;;6.34;100.00
30339;BME280;795;49.296;11.348;2023-03-26T06:51:47;95412.69;;;6.40;100.00
30339;BME280;795;49.296;11.348;2023-03-26T06:54:14;95379.06;;;6.39;100.00
30339;BME280;795;49.296;11.348;2023-03-26T06:56:41;95282.19;;;5.83;100.00
30339;BME280;795;49.296;11.348;2023-03-26T06:59:08;95459.59;;;7.05;100.00
30339;BME280;795;49.296;11.348;2023-03-26T07:01:35;95400.97;;;6.81;100.00
30339;BME280;795;49.296;11.348;2023-03-26T07:04:02;95403.16;;;6.78;100.00
30339;BME280;795;49.296;11.348;2023-03-26T07:06:31;95450.28;;;7.01;100.00
30339;BME280;795;49.296;11.348;2023-03-26T07:08:58;95321.75;;;6.43;100.00
30339;BME280;795;49.296;11.348;2023-03-26T07:11:24;95424.59;;;7.00;100.00
30339;BME280;795;49.296;11.348;2023-03-26T07:13:52;95447.53;;;7.25;100.00
30339;BME280;795;49.296;11.348;2023-03-26T07:16:22;95422.63;;;7.02;100.00
30339;BME280;795;49.296;11.348;2023-03-26T07:18:49;95449.34;;;7.33;100.00
30339;BME280;795;49.296;11.348;2023-03-26T07:21:17;95399.56;;;7.09;100.00
30339;BME280;795;49.296;11.348;2023-03-26T07:23:46;95447.69;;;7.32;100.00
30339;BME280;795;49.296;11.348;2023-03-26T07:39:44;95415.13;;;7.36;100.00
30339;BME280;795;49.296;11.348;2023-03-26T07:45:39;95397.25;;;7.06;100.00
30339;BME280;795;49.296;11.348;2023-03-26T07:48:21;95401.84;;;7.20;100.00
30339;BME280;795;49.296;11.348;2023-03-26T07:50:54;95308.06;;;6.54;100.00
30339;BME280;795;49.296;11.348;2023-03-26T07:53:22;95349.16;;;6.76;100.00
30339;BME280;795;49.296;11.348;2023-03-26T07:56:16;95394.91;;;7.03;100.00
30339;BME280;795;49.296;11.348;2023-03-26T07:59:01;95302.28;;;6.34;100.00
30339;BME280;795;49.296;11.348;2023-03-26T08:04:43;95391.13;;;6.82;100.00
30339;BME280;795;49.296;11.348;2023-03-26T08:07:53;95388.53;;;6.57;100.00
30339;BME280;795;49.296;11.348;2023-03-26T08:22:40;95390.34;;;6.65;100.00
30339;BME280;795;49.296;11.348;2023-03-26T08:25:32;95302.28;;;6.18;100.00
30339;BME280;795;49.296;11.348;2023-03-26T08:28:45;95370.19;;;6.54;100.00
30339;BME280;795;49.296;11.348;2023-03-26T08:31:34;95378.72;;;6.50;100.00
30339;BME280;795;49.296;11.348;2023-03-26T08:34:02;95378.03;;;6.56;100.00
30339;BME280;795;49.296;11.348;2023-03-26T08:36:29;95293.50;;;6.10;100.00
30339;BME280;795;49.296;11.348;2023-03-26T08:38:56;95345.34;;;6.62;100.00
30339;BME280;795;49.296;11.348;2023-03-26T08:42:08;95333.84;;;6.69;100.00
30339;BME280;795;49.296;11.348;2023-03-26T08:55:19;95320.19;;;7.03;100.00
30339;BME280;795;49.296;11.348;2023-03-26T09:02:00;95317.41;;;6.97;100.00
30339;BME280;795;49.296;11.348;2023-03-26T09:08:27;95311.88;;;6.98;100.00
30339;BME280;795;49.296;11.348;2023-03-26T09:14:32;95288.56;;;6.92;100.00
30339;BME280;795;49.296;11.348;2023-03-26T09:18:16;95232.03;;;6.66;100.00
30339;BME280;795;49.296;11.348;2023-03-26T09:25:09;95245.28;;;6.82;100.00
30339;BME280;795;49.296;11.348;2023-03-26T09:28:28;95277.38;;;6.97;100.00
30339;BME280;795;49.296;11.348;2023-03-26T09:37:12;95234.81;;;6.26;100.00
30339;BME280;795;49.296;11.348;2023-03-26T09:40:14;95163.34;;;5.74;100.00
30339;BME280;795;49.296;11.348;2023-03-26T09:46:35;95298.06;;;6.56;100.00
30339;BME280;795;49.296;11.348;2023-03-26T09:50:00;95294.09;;;6.44;100.00
30339;BME280;795;49.296;11.348;2023-03-26T09:56:37;95223.06;;;6.12;100.00
30339;BME280;795;49.296;11.348;2023-03-26T09:59:53;95218.19;;;6.16;100.00
30339;BME280;795;49.296;11.348;2023-03-26T10:02:47;95296.69;;;6.68;100.00
30339;BME280;795;49.296;11.348;2023-03-26T10:05:58;95303.31;;;6.80;100.00
30339;BME280;795;49.296;11.348;2023-03-26T10:12:03;95245.16;;;6.21;100.00
30339;BME280;795;49.296;11.348;2023-03-26T10:18:37;95239.81;;;6.29;100.00
30339;BME280;795;49.296;11.348;2023-03-26T10:28:20;95298.22;;;6.54;100.00
30339;BME280;795;49.296;11.348;2023-03-26T10:34:49;95277.25;;;6.43;100.00
30339;BME280;795;49.296;11.348;2023-03-26T10:38:00;95278.56;;;6.55;100.00
30339;BME280;795;49.296;11.348;2023-03-26T10:41:03;95297.88;;;6.49;100.00
30339;BME280;795;49.296;11.348;2023-03-26T10:51:00;95249.41;;;6.54;100.00
30339;BME280;795;49.296;11.348;2023-03-26T10:54:09;95199.75;;;6.53;100.00
30339;BME280;795;49.296;11.348;2023-03-26T10:56:48;95214.25;;;6.81;100.00
30339;BME280;795;49.296;11.348;2023-03-26T10:59:17;95188.97;;;6.46;100.00
30339;BME280;795;49.296;11.348;2023-03-26T11:02:29;95248.53;;;6.61;100.00
30339;BME280;795;49.296;11.348;2023-03-26T11:05:38;95242.06;;;6.56;100.00
30339;BME280;795;49.296;11.348;2023-03-26T11:08:54;95182.06;;;6.13;100.00
30339;BME280;795;49.296;11.348;2023-03-26T11:14:29;95252.09;;;6.46;100.00
30339;BME280;795;49.296;11.348;2023-03-26T11:20:41;95188.88;;;6.24;100.00
30339;BME280;795;49.296;11.348;2023-03-26T11:24:06;95242.59;;;6.43;100.00
30339;BME280;795;49.296;11.348;2023-03-26T11:27:11;95230.81;;;6.30;100.00
30339;BME280;795;49.296;11.348;2023-03-26T11:33:04;95136.25;;;5.55;100.00
30339;BME280;795;49.296;11.348;2023-03-26T11:35:39;95191.31;;;5.86;100.00
30339;BME280;795;49.296;11.348;2023-03-26T11:38:28;95159.22;;;5.64;100.00
30339;BME280;795;49.296;11.348;2023-03-26T11:41:00;95145.53;;;5.67;100.00
30339;BME280;795;49.296;11.348;2023-03-26T11:43:34;95189.75;;;6.08;100.00
30339;BME280;795;49.296;11.348;2023-03-26T11:46:11;95160.81;;;6.05;100.00
30339;BME280;795;49.296;11.348;2023-03-26T11:48:57;95027.22;;;5.30;100.00
30339;BME280;795;49.296;11.348;2023-03-26T11:51:38;95115.94;;;5.86;100.00
30339;BME280;795;49.296;11.348;2023-03-26T11:54:09;95184.50;;;6.39;100.00
30339;BME280;795;49.296;11.348;2023-03-26T11:59:50;95122.13;;;6.17;100.00
30339;BME280;795;49.296;11.348;2023-03-26T12:02:38;95176.75;;;6.83;100.00
30339;BME280;795;49.296;11.348;2023-03-26T12:05:25;95158.84;;;6.91;100.00
30339;BME280;795;49.296;11.348;2023-03-26T12:08:01;95098.88;;;6.87;100.00
30339;BME280;795;49.296;11.348;2023-03-26T12:10:40;95051.84;;;6.86;100.00
30339;BME280;795;49.296;11.348;2023-03-26T12:13:44;95101.34;;;7.78;100.00
30339;BME280;795;49.296;11.348;2023-03-26T12:16:20;95147.41;;;8.09;100.00
30339;BME280;795;49.296;11.348;2023-03-26T12:19:01;95133.63;;;8.35;100.00
30339;BME280;795;49.296;11.348;2023-03-26T12:21:48;95126.28;;;8.58;100.00
30339;BME280;795;49.296;11.348;2023-03-26T12:24:32;95117.84;;;8.76;100.00
30339;BME280;795;49.296;11.348;2023-03-26T12:27:25;95070.63;;;8.47;100.00
30339;BME280;795;49.296;11.348;2023-03-26T12:30:24;95107.13;;;8.54;100.00
30339;BME280;795;49.296;11.348;2023-03-26T12:33:03;95065.31;;;8.32;100.00
30339;BME280;795;49.296;11.348;2023-03-26T12:35:34;95031.66;;;8.23;100.00
30339;BME280;795;49.296;11.348;2023-03-26T12:38:33;94981.88;;;7.86;100.00
30339;BME280;795;49.296;11.348;2023-03-26T12:41:11;95094.63;;;8.40;100.00
30339;BME280;795;49.296;11.348;2023-03-26T12:44:51;95090.66;;;8.36;100.00
30339;BME280;795;49.296;11.348;2023-03-26T12:47:34;95045.25;;;7.78;100.00
30339;BME280;795;49.296;11.348;2023-03-26T12:50:40;95068.22;;;7.87;100.00
30339;BME280;795;49.296;11.348;2023-03-26T12:54:01;95054.06;;;8.22;100.00
30339;BME280;795;49.296;11.348;2023-03-26T13:00:08;95029.72;;;8.17;100.00
30339;BME280;795;49.296;11.348;2023-03-26T13:03:15;95086.91;;;9.09;100.00
30339;BME280;795;49.296;11.348;2023-03-26T13:06:28;95052.34;;;10.03;100.00
30339;BME280;795;49.296;11.348;2023-03-26T13:12:29;95044.91;;;12.36;100.00
30339;BME280;795;49.296;11.348;2023-03-26T13:15:39;95052.69;;;14.91;100.00
30339;BME280;795;49.296;11.348;2023-03-26T13:18:46;94997.63;;;17.06;81.33
30339;BME280;795;49.296;11.348;2023-03-26T13:31:26;95044.91;;;17.10;63.42
30339;BME280;795;49.296;11.348;2023-03-26T13:41:21;94976.84;;;18.49;58.13
30339;BME280;795;49.296;11.348;2023-03-26T13:44:10;95013.94;;;18.22;58.13
30339;BME280;795;49.296;11.348;2023-03-26T13:46:52;95022.94;;;18.61;57.44
30339;BME280;795;49.296;11.348;2023-03-26T13:49:35;94986.03;;;18.87;56.84
30339;BME280;795;49.296;11.348;2023-03-26T13:52:26;94952.09;;;18.08;55.40
30339;BME280;795;49.296;11.348;2023-03-26T13:55:31;95016.72;;;18.87;56.32
30339;BME280;795;49.296;11.348;2023-03-26T13:58:37;95012.97;;;18.28;55.67
30339;BME280;795;49.296;11.348;2023-03-26T14:04:20;94933.31;;;15.93;61.71
30339;BME280;795;49.296;11.348;2023-03-26T14:06:55;94937.44;;;16.76;61.60
30339;BME280;795;49.296;11.348;2023-03-26T14:09:39;94971.97;;;17.75;57.11
30339;BME280;795;49.296;11.348;2023-03-26T14:15:16;94872.66;;;15.55;63.60
30339;BME280;795;49.296;11.348;2023-03-26T14:18:46;94952.88;;;16.24;66.54
30339;BME280;795;49.296;11.348;2023-03-26T14:22:10;94942.47;;;15.92;64.50
30339;BME280;795;49.296;11.348;2023-03-26T14:31:37;94929.72;;;13.75;67.08
30339;BME280;795;49.296;11.348;2023-03-26T14:37:51;94933.81;;;14.14;79.81
30339;BME280;795;49.296;11.348;2023-03-26T14:41:01;94925.38;;;14.58;73.93
30339;BME280;795;49.296;11.348;2023-03-26T14:44:35;94870.44;;;15.91;64.15
30339;BME280;795;49.296;11.348;2023-03-26T14:47:23;94911.50;;;16.96;59.95
30339;BME280;795;49.296;11.348;2023-03-26T14:53:38;94921.31;;;17.47;56.32
30339;BME280;795;49.296;11.348;2023-03-26T14:59:55;94879.25;;;14.71;61.29
30339;BME280;795;49.296;11.348;2023-03-26T15:04:01;94919.19;;;14.21;64.95
30339;BME280;795;49.296;11.348;2023-03-26T15:10:36;94895.50;;;11.06;91.32
30339;BME280;795;49.296;11.348;2023-03-26T15:13:30;94871.78;;;10.37;100.00
30339;BME280;795;49.296;11.348;2023-03-26T15:20:09;94917.41;;;10.70;100.00
30339;BME280;795;49.296;11.348;2023-03-26T15:30:40;94922.88;;;12.18;96.50
30339;BME280;795;49.296;11.348;2023-03-26T15:50:51;94920.06;;;18.48;53.89
30339;BME280;795;49.296;11.348;2023-03-26T15:57:12;94892.63;;;15.42;59.90
30339;BME280;795;49.296;11.348;2023-03-26T15:59:57;94935.78;;;13.88;66.86
30339;BME280;795;49.296;11.348;2023-03-26T16:03:10;94930.03;;;13.24;73.88
30339;BME280;795;49.296;11.348;2023-03-26T16:12:29;94909.53;;;11.14;87.55
30339;BME280;795;49.296;11.348;2023-03-26T16:29:30;94850.47;;;14.65;61.59
30339;BME280;795;49.296;11.348;2023-03-26T16:32:16;94940.66;;;13.98;64.14
30339;BME280;795;49.296;11.348;2023-03-26T16:38:03;94927.28;;;11.99;74.14
30339;BME280;795;49.296;11.348;2023-03-26T16:40:50;94898.75;;;11.34;78.23
30339;BME280;795;49.296;11.348;2023-03-26T16:43:39;94933.50;;;10.83;79.51
30339;BME280;795;49.296;11.348;2023-03-26T16:46:59;94927.09;;;10.45;84.88
30339;BME280;795;49.296;11.348;2023-03-26T16:52:57;94819.56;;;9.40;87.99
30339;BME280;795;49.296;11.348;2023-03-26T16:55:40;94858.97;;;9.59;89.83
30339;BME280;795;49.296;11.348;2023-03-26T16:58:33;94930.84;;;9.96;91.30
30339;BME280;795;49.296;11.348;2023-03-26T17:01:46;94913.47;;;9.73;90.04
30339;BME280;795;49.296;11.348;2023-03-26T17:04:23;94847.16;;;9.41;89.68
30339;BME280;795;49.296;11.348;2023-03-26T17:10:07;94877.06;;;9.44;87.66
30339;BME280;795;49.296;11.348;2023-03-26T17:13:06;94862.25;;;9.07;86.73
30339;BME280;795;49.296;11.348;2023-03-26T17:19:00;94885.66;;;8.64;92.69
30339;BME280;795;49.296;11.348;2023-03-26T17:22:23;94933.50;;;8.81;89.37
30339;BME280;795;49.296;11.348;2023-03-26T17:25:10;94931.25;;;8.84;89.40
30339;BME280;795;49.296;11.348;2023-03-26T17:31:04;94923.31;;;8.97;87.94
30339;BME280;795;49.296;11.348;2023-03-26T17:33:36;94923.78;;;9.01;89.92
30339;BME280;795;49.296;11.348;2023-03-26T17:41:08;94928.06;;;8.95;91.78
30339;BME280;795;49.296;11.348;2023-03-26T17:43:46;94932.56;;;8.95;91.21
30339;BME280;795;49.296;11.348;2023-03-26T17:46:38;94763.41;;;7.82;89.58
30339;BME280;795;49.296;11.348;2023-03-26T17:54:43;94897.97;;;8.38;95.12
30339;BME280;795;49.296;11.348;2023-03-26T17:57:17;94953.66;;;8.77;94.36
30339;BME280;795;49.296;11.348;2023-03-26T17:59:52;94949.34;;;8.82;90.12
30339;BME280;795;49.296;11.348;2023-03-26T18:02:40;94952.22;;;8.81;90.49
30339;BME280;795;49.296;11.348;2023-03-26T18:05:16;94951.59;;;8.79;88.57
30339;BME280;795;49.296;11.348;2023-03-26T18:11:36;94907.25;;;8.42;88.43
30339;BME280;795;49.296;11.348;2023-03-26T18:17:45;94925.09;;;8.62;86.68
30339;BME280;795;49.296;11.348;2023-03-26T18:20:30;94915.94;;;8.50;86.70
30339;BME280;795;49.296;11.348;2023-03-26T18:23:09;94961.22;;;8.73;87.71
30339;BME280;795;49.296;11.348;2023-03-26T18:25:38;94794.31;;;7.70;90.14
30339;BME280;795;49.296;11.348;2023-03-26T18:28:11;94908.50;;;8.25;91.15